Time;durP1;ratioP1;P1;durP2;ratioP2;P2;SDS_P1;SDS_P2;PMS_P1;PMS_P2;Temp;Humidity;BMP_temperature;BMP_pressure;BME280_temperature;BME280_humidity;BME280_pressure;Samples;Min_cycle;Max_cycle;Signal;HPM_P1;HPM_P2
2022/12/01 00:01:44;;;;;;;1999.90;999.90;;;6.70;99.90;;;;;;5072238;28;20381;-74
2022/12/01 00:04:09;;;;;;;1999.90;999.90;;;6.70;99.90;;;;;;5072134;28;20055;-76
2022/12/01 00:06:36;;;;;;;1999.90;999.90;;;6.70;99.90;;;;;;5074162;28;20028;-75
2022/12/01 00:11:46;;;;;;;1999.90;999.90;;;6.60;99.90;;;;;;5073841;28;20035;-75
2022/12/01 00:14:12;;;;;;;1999.90;999.90;;;6.60;99.90;;;;;;5073685;28;20045;-75
2022/12/01 00:16:39;;;;;;;1999.90;999.90;;;6.60;99.90;;;;;;5072757;28;20028;-75
2022/12/01 00:19:04;;;;;;;1999.90;999.90;;;6.60;99.90;;;;;;5073254;28;20136;-75
2022/12/01 00:21:30;;;;;;;1999.90;999.90;;;6.60;99.90;;;;;;5073970;28;20103;-75
2022/12/01 00:23:57;;;;;;;1999.90;999.90;;;6.60;99.90;;;;;;5072347;28;20035;-74
2022/12/01 00:26:24;;;;;;;1999.90;999.90;;;6.50;99.90;;;;;;5072638;28;20017;-75
2022/12/01 00:28:51;;;;;;;1999.90;999.90;;;6.50;99.90;;;;;;5072605;28;20464;-75
2022/12/01 00:31:17;;;;;;;1999.90;999.90;;;6.50;99.90;;;;;;5073965;28;20017;-76
2022/12/01 00:33:43;;;;;;;1999.90;999.90;;;6.50;99.90;;;;;;5072218;28;20086;-77
2022/12/01 00:36:08;;;;;;;1999.90;999.90;;;6.50;99.90;;;;;;5073208;28;20021;-75
2022/12/01 00:38:34;;;;;;;1999.90;999.90;;;6.40;99.90;;;;;;5073371;28;20475;-76
2022/12/01 00:41:00;;;;;;;1999.90;999.90;;;6.20;99.90;;;;;;5069518;28;20031;-77
2022/12/01 00:43:26;;;;;;;1999.90;999.90;;;6.10;99.90;;;;;;5053507;28;20052;-75
2022/12/01 00:45:52;;;;;;;1999.90;999.90;;;6.00;99.90;;;;;;5087646;28;20050;-75
2022/12/01 00:48:17;;;;;;;1999.90;999.90;;;5.90;99.90;;;;;;5093604;28;20028;-76
2022/12/01 00:50:44;;;;;;;1999.90;999.90;;;5.90;99.90;;;;;;5093522;28;20395;-77
2022/12/01 00:53:10;;;;;;;1999.90;999.90;;;5.80;99.90;;;;;;5093781;28;20120;-77
2022/12/01 00:55:35;;;;;;;1999.90;999.90;;;5.80;99.90;;;;;;5093060;28;20047;-74
2022/12/01 00:58:01;;;;;;;1999.90;999.90;;;5.70;99.90;;;;;;5093474;28;20051;-75
2022/12/01 01:00:27;;;;;;;1999.90;999.90;;;5.70;99.90;;;;;;5093356;28;20048;-77
2022/12/01 01:02:52;;;;;;;1999.90;999.90;;;5.80;99.90;;;;;;5083794;28;20121;-76
2022/12/01 01:05:18;;;;;;;1999.90;999.90;;;5.80;99.90;;;;;;5072857;28;20099;-76
2022/12/01 01:07:44;;;;;;;1999.90;999.90;;;5.70;99.90;;;;;;5072665;28;20066;-77
2022/12/01 01:10:10;;;;;;;1999.90;999.90;;;5.70;99.90;;;;;;5071368;28;20017;-75
2022/12/01 01:12:37;;;;;;;1999.90;999.90;;;5.70;99.90;;;;;;5071224;28;20051;-74
2022/12/01 01:15:04;;;;;;;1999.90;999.90;;;5.80;99.90;;;;;;5071404;28;20020;-76
2022/12/01 01:17:31;;;;;;;1999.90;999.90;;;5.80;99.90;;;;;;5072380;28;20533;-76
2022/12/01 01:19:56;;;;;;;1999.90;999.90;;;6.00;99.90;;;;;;5072400;28;20033;-76
2022/12/01 01:22:22;;;;;;;1999.90;999.90;;;6.00;99.90;;;;;;5072421;28;20107;-75
2022/12/01 01:24:48;;;;;;;1999.90;999.90;;;6.10;99.90;;;;;;5070865;28;20048;-76
2022/12/01 01:27:13;;;;;;;1999.90;999.90;;;6.10;99.90;;;;;;5070770;28;20032;-75
2022/12/01 01:29:39;;;;;;;1999.90;999.90;;;6.20;99.90;;;;;;5072304;28;20052;-75
2022/12/01 01:32:05;;;;;;;1999.90;999.90;;;6.30;99.90;;;;;;5073256;28;20031;-76
2022/12/01 01:34:30;;;;;;;1999.90;999.90;;;6.30;99.90;;;;;;5072557;28;20025;-75
2022/12/01 01:36:56;;;;;;;1999.90;999.90;;;6.30;99.90;;;;;;5071620;28;20162;-75
2022/12/01 01:39:22;;;;;;;1999.90;999.90;;;6.40;99.90;;;;;;5071116;28;20025;-74
2022/12/01 01:41:47;;;;;;;1999.90;999.90;;;6.40;99.90;;;;;;5067469;28;20029;-74
2022/12/01 01:44:48;;;;;;;1999.90;999.90;;;6.40;99.90;;;;;;5071497;28;20051;-75
2022/12/01 01:47:27;;;;;;;1999.90;999.90;;;6.40;99.90;;;;;;5072693;28;20480;-77
2022/12/01 01:49:55;;;;;;;1999.90;999.90;;;6.40;99.90;;;;;;5070725;28;20028;-75
2022/12/01 01:52:22;;;;;;;1999.90;999.90;;;6.40;99.90;;;;;;5072189;28;20040;-77
2022/12/01 01:54:52;;;;;;;1999.90;999.90;;;6.40;99.90;;;;;;5072344;28;20031;-75
2022/12/01 01:57:24;;;;;;;1999.90;999.90;;;6.40;99.90;;;;;;5070676;28;20448;-77
2022/12/01 01:59:56;;;;;;;1999.90;999.90;;;6.40;99.90;;;;;;5072174;28;20032;-76
2022/12/01 02:02:22;;;;;;;1999.90;999.90;;;6.40;99.90;;;;;;5071321;28;20398;-75
2022/12/01 02:04:54;;;;;;;1999.90;999.90;;;6.40;99.90;;;;;;5071937;28;20044;-76
2022/12/01 02:07:19;;;;;;;1999.90;999.90;;;6.50;99.90;;;;;;5071066;28;20401;-74
2022/12/01 02:09:45;;;;;;;1999.90;999.90;;;6.50;99.90;;;;;;5071046;28;20043;-77
2022/12/01 02:12:48;;;;;;;1999.90;999.90;;;6.50;99.90;;;;;;5070623;28;20442;-74
2022/12/01 02:15:55;;;;;;;1999.90;999.90;;;6.50;99.90;;;;;;5071949;28;20020;-77
2022/12/01 02:18:32;;;;;;;1999.90;999.90;;;6.50;99.90;;;;;;5032350;28;20101;-76
2022/12/01 02:21:24;;;;;;;1999.90;999.90;;;6.50;99.90;;;;;;5072168;28;20016;-75
2022/12/01 02:24:15;;;;;;;1999.90;999.90;;;6.50;99.90;;;;;;5057497;28;20119;-76
2022/12/01 02:26:59;;;;;;;1999.90;999.90;;;6.50;99.90;;;;;;5072057;28;20029;-75
2022/12/01 02:29:43;;;;;;;1999.90;999.90;;;6.50;99.90;;;;;;5076049;28;20060;-75
2022/12/01 02:32:24;;;;;;;1999.90;999.90;;;6.50;99.90;;;;;;5074628;28;20028;-76
2022/12/01 02:35:22;;;;;;;1999.90;999.90;;;6.50;99.90;;;;;;5076061;28;20031;-77
2022/12/01 02:38:08;;;;;;;1999.90;999.90;;;6.50;99.90;;;;;;5068482;28;20041;-75
2022/12/01 02:40:51;;;;;;;1999.90;999.90;;;6.50;99.90;;;;;;5075516;28;20463;-77
2022/12/01 02:43:47;;;;;;;1999.90;999.90;;;6.50;99.90;;;;;;5056442;28;20435;-75
2022/12/01 02:46:16;;;;;;;1999.90;999.90;;;6.60;99.90;;;;;;5074506;28;20064;-74
2022/12/01 02:48:46;;;;;;;1999.90;999.90;;;6.60;99.90;;;;;;5075671;28;20028;-77
2022/12/01 02:51:34;;;;;;;1999.90;999.90;;;6.60;99.90;;;;;;5075699;28;20082;-75
2022/12/01 02:54:02;;;;;;;1999.90;999.90;;;6.60;99.90;;;;;;5106910;28;20044;-75
2022/12/01 02:56:28;;;;;;;1999.90;999.90;;;6.60;99.90;;;;;;5074002;28;20028;-77
2022/12/01 02:58:54;;;;;;;1999.90;999.90;;;6.50;99.90;;;;;;5075986;28;20034;-76
2022/12/01 03:01:26;;;;;;;1999.90;999.90;;;6.60;99.90;;;;;;5075534;28;20214;-77
2022/12/01 03:04:13;;;;;;;1999.90;999.90;;;6.50;99.90;;;;;;5073890;28;20048;-75
2022/12/01 03:06:52;;;;;;;1999.90;999.90;;;6.50;99.90;;;;;;5075374;28;20089;-75
2022/12/01 03:09:26;;;;;;;1999.90;999.90;;;6.60;99.90;;;;;;5074808;28;20068;-76
2022/12/01 03:12:03;;;;;;;1999.90;999.90;;;6.50;99.90;;;;;;5075171;28;20034;-75
2022/12/01 03:14:45;;;;;;;1999.90;999.90;;;6.60;99.90;;;;;;5075030;28;20487;-75
2022/12/01 03:17:17;;;;;;;1999.90;999.90;;;6.60;99.90;;;;;;5075524;28;20104;-77
2022/12/01 03:19:55;;;;;;;1999.90;999.90;;;6.60;99.90;;;;;;5070307;28;20496;-77
2022/12/01 03:22:29;;;;;;;1999.90;999.90;;;6.60;99.90;;;;;;5054854;28;20104;-75
2022/12/01 03:24:57;;;;;;;1999.90;999.90;;;6.50;99.90;;;;;;5053204;28;20116;-75
2022/12/01 03:27:28;;;;;;;1999.90;999.90;;;6.60;99.90;;;;;;5054548;28;20488;-77
2022/12/01 03:29:58;;;;;;;1999.90;999.90;;;6.60;99.90;;;;;;5054693;28;20021;-76
2022/12/01 03:32:31;;;;;;;1999.90;999.90;;;6.60;99.90;;;;;;5055061;28;20036;-76
2022/12/01 03:34:59;;;;;;;1999.90;999.90;;;6.50;99.90;;;;;;5053624;28;20052;-77
2022/12/01 03:37:45;;;;;;;1999.90;999.90;;;6.50;99.90;;;;;;5054666;28;20116;-77
2022/12/01 03:40:16;;;;;;;1999.90;999.90;;;6.60;99.90;;;;;;5069541;28;20453;-76
2022/12/01 03:42:50;;;;;;;1999.90;999.90;;;6.60;99.90;;;;;;5070385;28;20036;-75
2022/12/01 03:45:22;;;;;;;1999.90;999.90;;;6.60;99.90;;;;;;5079061;28;20099;-74
2022/12/01 03:47:49;;;;;;;1999.90;999.90;;;6.70;99.90;;;;;;5094620;28;20020;-75
2022/12/01 03:50:17;;;;;;;1999.90;999.90;;;6.70;99.90;;;;;;5094899;28;20379;-75
2022/12/01 03:52:43;;;;;;;1999.90;999.90;;;6.70;99.90;;;;;;5093947;28;20487;-75
2022/12/01 03:55:26;;;;;;;1999.90;999.90;;;6.70;99.90;;;;;;5094692;28;20031;-77
2022/12/01 03:57:55;;;;;;;1999.90;999.90;;;6.70;99.90;;;;;;5094753;28;20442;-76
2022/12/01 04:00:22;;;;;;;1999.90;999.90;;;6.70;99.90;;;;;;5093127;28;20126;-75
2022/12/01 04:02:54;;;;;;;1999.90;999.90;;;6.70;99.90;;;;;;5084456;28;20037;-75
2022/12/01 04:05:20;;;;;;;1999.90;999.90;;;6.70;99.90;;;;;;5074426;28;20465;-75
2022/12/01 04:07:46;;;;;;;1999.90;999.90;;;6.70;99.90;;;;;;5072841;28;20079;-77
2022/12/01 04:10:12;;;;;;;1999.90;999.90;;;6.70;99.90;;;;;;5073773;28;20016;-75
2022/12/01 04:12:37;;;;;;;1999.90;999.90;;;6.70;99.90;;;;;;5072560;28;20024;-77
2022/12/01 04:15:07;;;;;;;1999.90;999.90;;;6.60;99.90;;;;;;5074403;28;20020;-77
2022/12/01 04:17:33;;;;;;;1999.90;999.90;;;6.70;99.90;;;;;;5073268;28;20035;-77
2022/12/01 04:19:59;;;;;;;1999.90;999.90;;;6.70;99.90;;;;;;5069093;28;20040;-75
2022/12/01 04:22:25;;;;;;;1999.90;999.90;;;6.60;99.90;;;;;;5053812;28;20096;-75
2022/12/01 04:24:51;;;;;;;1999.90;999.90;;;6.60;99.90;;;;;;5068719;28;20059;-77
2022/12/01 04:27:18;;;;;;;1999.90;999.90;;;6.70;99.90;;;;;;5069602;28;20102;-75
2022/12/01 04:29:44;;;;;;;1999.90;999.90;;;6.70;99.90;;;;;;5053302;28;20396;-77
2022/12/01 04:32:10;;;;;;;1999.90;999.90;;;6.60;99.90;;;;;;5053439;28;20028;-77
2022/12/01 04:34:36;;;;;;;1999.90;999.90;;;6.60;99.90;;;;;;5052712;28;20020;-76
2022/12/01 04:37:02;;;;;;;1999.90;999.90;;;6.60;99.90;;;;;;5053664;28;20377;-77
2022/12/01 04:39:28;;;;;;;1999.90;999.90;;;6.70;99.90;;;;;;5053361;28;20017;-75
2022/12/01 04:41:53;;;;;;;1999.90;999.90;;;6.70;99.90;;;;;;5053451;28;20396;-75
2022/12/01 04:44:19;;;;;;;1999.90;999.90;;;6.70;99.90;;;;;;5072182;28;20452;-77
2022/12/01 04:46:45;;;;;;;1999.90;999.90;;;6.70;99.90;;;;;;5073191;28;20368;-77
2022/12/01 04:49:11;;;;;;;1999.90;999.90;;;6.70;99.90;;;;;;5072877;28;20017;-77
2022/12/01 04:51:36;;;;;;;1999.90;999.90;;;6.70;99.90;;;;;;5073518;28;20028;-75
2022/12/01 04:54:04;;;;;;;1999.90;999.90;;;6.70;99.90;;;;;;5072929;28;20118;-77
2022/12/01 04:56:31;;;;;;;1999.90;999.90;;;6.70;99.90;;;;;;5073154;28;20047;-76
2022/12/01 04:58:58;;;;;;;1999.90;999.90;;;6.70;99.90;;;;;;5072170;28;20487;-75
2022/12/01 05:01:27;;;;;;;1999.90;999.90;;;6.70;99.90;;;;;;5072346;28;20025;-77
2022/12/01 05:03:53;;;;;;;1999.90;999.90;;;6.70;99.90;;;;;;5072903;28;20051;-75
2022/12/01 05:06:21;;;;;;;1999.90;999.90;;;6.70;99.90;;;;;;5073388;28;20021;-77
2022/12/01 05:08:47;;;;;;;1999.90;999.90;;;6.70;99.90;;;;;;5073572;28;20729;-74
2022/12/01 05:11:13;;;;;;;1999.90;999.90;;;6.70;99.90;;;;;;5071256;28;20404;-74
2022/12/01 05:13:41;;;;;;;1999.90;999.90;;;6.70;99.90;;;;;;5072630;28;20093;-74
2022/12/01 05:16:11;;;;;;;1999.90;999.90;;;6.80;99.90;;;;;;5072776;28;20510;-75
2022/12/01 05:18:37;;;;;;;1999.90;999.90;;;6.80;99.90;;;;;;5071418;28;20407;-75
2022/12/01 05:21:05;;;;;;;1999.90;999.90;;;6.70;99.90;;;;;;5068031;28;20060;-77
2022/12/01 05:23:33;;;;;;;1999.90;999.90;;;6.80;99.90;;;;;;5052670;28;20079;-75
2022/12/01 05:26:00;;;;;;;1999.90;999.90;;;6.70;99.90;;;;;;5052011;28;20506;-75
2022/12/01 05:28:26;;;;;;;1999.90;999.90;;;6.70;99.90;;;;;;5052353;28;20025;-77
2022/12/01 05:30:53;;;;;;;1999.90;999.90;;;6.80;99.90;;;;;;5052217;28;20035;-75
2022/12/01 05:33:20;;;;;;;1999.90;999.90;;;6.60;99.90;;;;;;5085171;28;20056;-75
2022/12/01 05:35:47;;;;;;;1999.90;999.90;;;6.60;99.90;;;;;;5052413;28;20029;-75
2022/12/01 05:38:14;;;;;;;1999.90;999.90;;;6.60;99.90;;;;;;5084587;28;20488;-77
2022/12/01 05:40:40;;;;;;;1999.90;999.90;;;6.60;99.90;;;;;;5052182;28;20029;-75
2022/12/01 05:43:06;;;;;;;1999.90;999.90;;;6.60;99.90;;;;;;5052611;28;20071;-74
2022/12/01 05:45:32;;;;;;;1999.90;999.90;;;6.50;99.90;;;;;;5080934;28;20052;-75
2022/12/01 05:48:00;;;;;;;1999.90;999.90;;;6.50;99.90;;;;;;5092959;28;20447;-76
2022/12/01 05:50:27;;;;;;;1999.90;999.90;;;6.50;99.90;;;;;;5092442;28;20094;-76
2022/12/01 05:52:52;;;;;;;1999.90;999.90;;;6.40;99.90;;;;;;5091441;28;20444;-77
2022/12/01 05:55:18;;;;;;;1999.90;999.90;;;6.40;99.90;;;;;;5092368;28;20059;-74
2022/12/01 05:57:47;;;;;;;1999.90;999.90;;;6.30;99.90;;;;;;5092235;28;20024;-74
2022/12/01 06:00:14;;;;;;;1999.90;999.90;;;6.20;99.90;;;;;;5072113;28;20025;-75
2022/12/01 06:02:40;;;;;;;1999.90;999.90;;;6.10;99.90;;;;;;5076341;28;20369;-76
2022/12/01 06:05:07;;;;;;;1999.90;999.90;;;6.00;99.90;;;;;;5076656;28;20027;-74
2022/12/01 06:07:34;;;;;;;1999.90;999.90;;;6.00;99.90;;;;;;5076712;28;20113;-76
2022/12/01 06:10:00;;;;;;;1999.90;999.90;;;5.80;99.90;;;;;;5075788;28;20170;-74
2022/12/01 06:12:25;;;;;;;1999.90;999.90;;;5.70;99.90;;;;;;5076173;28;20103;-76
2022/12/01 06:14:51;;;;;;;1999.90;999.90;;;5.60;99.90;;;;;;5076376;28;20025;-76
2022/12/01 06:17:17;;;;;;;1999.90;999.90;;;5.50;99.90;;;;;;5076699;28;20114;-77
2022/12/01 06:19:42;;;;;;;1999.90;999.90;;;5.40;99.90;;;;;;5076240;28;20028;-74
2022/12/01 06:22:09;;;;;;;1999.90;999.90;;;5.40;99.90;;;;;;5071104;28;20021;-74
2022/12/01 06:24:34;;;;;;;1999.90;999.90;;;5.30;99.90;;;;;;5055820;28;20379;-74
2022/12/01 06:27:00;;;;;;;1999.90;999.90;;;5.20;99.90;;;;;;5055708;28;20029;-76
2022/12/01 06:29:26;;;;;;;1999.90;999.90;;;5.10;99.90;;;;;;5070912;28;20072;-74
2022/12/01 06:31:51;;;;;;;1999.90;999.90;;;5.00;99.90;;;;;;5055032;28;20468;-76
2022/12/01 06:34:17;;;;;;;1999.90;999.90;;;5.00;99.90;;;;;;5055386;28;20036;-76
2022/12/01 06:36:43;;;;;;;1999.90;999.90;;;4.90;99.90;;;;;;5062055;28;20119;-74
2022/12/01 06:39:09;;;;;;;1999.90;999.90;;;4.80;99.90;;;;;;5074225;28;20016;-76
2022/12/01 06:41:38;;;;;;;1999.90;999.90;;;4.80;99.90;;;;;;5075069;28;20029;-76
2022/12/01 06:44:04;;;;;;;1999.90;999.90;;;4.80;99.90;;;;;;5086331;28;20025;-77
2022/12/01 06:46:29;;;;;;;1999.90;999.90;;;4.70;99.90;;;;;;5074955;28;20492;-76
2022/12/01 06:48:55;;;;;;;1999.90;999.90;;;4.70;99.90;;;;;;5069450;28;20016;-75
2022/12/01 06:51:21;;;;;;;1999.90;999.90;;;4.70;99.90;;;;;;5075512;28;20029;-74
2022/12/01 06:53:46;;;;;;;1999.90;999.90;;;4.60;99.90;;;;;;5074960;28;20407;-75
2022/12/01 06:56:12;;;;;;;1999.90;999.90;;;4.60;99.90;;;;;;5073606;28;20028;-76
2022/12/01 06:58:38;;;;;;;1999.90;999.90;;;4.60;99.90;;;;;;5064240;28;20029;-74
2022/12/01 07:01:11;;;;;;;1999.90;999.90;;;4.50;99.90;;;;;;5066345;28;20024;-74
2022/12/01 07:03:36;;;;;;;;;;;4.50;99.90;;;;;;5070218;28;20595;-76
2022/12/01 07:06:03;;;;;;;1999.90;999.90;;;4.50;99.90;;;;;;5073145;28;19966;-76
2022/12/01 07:08:30;;;;;;;1999.90;999.90;;;4.50;99.90;;;;;;5073599;28;20108;-76
2022/12/01 07:11:03;;;;;;;1999.90;999.90;;;4.40;99.90;;;;;;5073856;28;20538;-77
2022/12/01 07:13:29;;;;;;;1999.90;999.90;;;4.40;99.90;;;;;;5081079;28;20032;-74
2022/12/01 07:15:56;;;;;;;1999.90;999.90;;;4.40;99.90;;;;;;5075688;28;20067;-76
2022/12/01 07:18:21;;;;;;;1999.90;999.90;;;4.40;99.90;;;;;;5079729;28;20031;-74
2022/12/01 07:20:47;;;;;;;1999.90;999.90;;;4.40;99.90;;;;;;5080191;28;20028;-76
2022/12/01 07:23:13;;;;;;;1999.90;999.90;;;4.30;99.90;;;;;;5076622;28;20024;-74
2022/12/01 07:25:39;;;;;;;1999.90;999.90;;;4.30;99.90;;;;;;5071951;28;20131;-74
2022/12/01 07:28:04;;;;;;;1999.90;999.90;;;4.20;99.90;;;;;;5090658;28;20036;-74
2022/12/01 07:30:30;;;;;;;1999.90;999.90;;;4.20;99.90;;;;;;5071757;28;20036;-74
2022/12/01 07:32:56;;;;;;;1999.90;999.90;;;4.20;99.90;;;;;;5074319;28;20032;-76
2022/12/01 07:35:21;;;;;;;1999.90;999.90;;;4.20;99.90;;;;;;5078739;28;20024;-76
2022/12/01 07:37:47;;;;;;;1999.90;999.90;;;4.20;99.90;;;;;;5062352;28;20040;-77
2022/12/01 07:40:13;;;;;;;1999.90;999.90;;;4.20;99.90;;;;;;5084739;28;20028;-74
2022/12/01 07:42:41;;;;;;;1999.90;999.90;;;4.20;99.90;;;;;;5084653;28;20020;-76
2022/12/01 07:45:07;;;;;;;1999.90;999.90;;;4.10;99.90;;;;;;5086711;28;20052;-75
2022/12/01 07:47:33;;;;;;;1999.90;999.90;;;4.10;99.90;;;;;;5074080;28;20846;-76
2022/12/01 07:49:59;;;;;;;1999.90;999.90;;;4.10;99.90;;;;;;5072532;28;20547;-74
2022/12/01 07:52:25;;;;;;;1999.90;999.90;;;4.20;99.90;;;;;;5073389;28;20027;-74
2022/12/01 07:54:51;;;;;;;1999.90;999.90;;;4.20;99.90;;;;;;5086286;28;20042;-74
2022/12/01 07:57:18;;;;;;;1999.90;999.90;;;4.20;99.90;;;;;;5071692;28;20050;-76
2022/12/01 07:59:44;;;;;;;1999.90;999.90;;;4.30;99.90;;;;;;5070168;28;20013;-76
2022/12/01 08:02:09;;;;;;;1999.90;999.90;;;4.40;99.90;;;;;;5073899;28;20072;-76
2022/12/01 08:04:36;;;;;;;1999.90;999.90;;;4.40;99.90;;;;;;5077819;28;20457;-74
2022/12/01 08:07:02;;;;;;;1999.90;999.90;;;4.50;99.90;;;;;;5072045;28;20089;-74
2022/12/01 08:09:27;;;;;;;1999.90;999.90;;;4.50;99.90;;;;;;5083362;28;20633;-77
2022/12/01 08:11:53;;;;;;;1999.90;999.90;;;4.60;99.90;;;;;;5077728;28;20107;-76
2022/12/01 08:14:19;;;;;;;1999.90;999.90;;;4.60;99.90;;;;;;5082534;28;20052;-74
2022/12/01 08:16:44;;;;;;;1999.90;999.90;;;4.60;99.90;;;;;;5072680;28;20112;-77
2022/12/01 08:19:10;;;;;;;1999.90;999.90;;;4.70;99.90;;;;;;5070523;28;20024;-76
2022/12/01 08:21:36;;;;;;;1999.90;999.90;;;4.70;99.90;;;;;;5083803;28;20123;-77
2022/12/01 08:24:03;;;;;;;1999.90;999.90;;;4.80;99.90;;;;;;5073203;28;20020;-77
2022/12/01 08:26:29;;;;;;;1999.90;999.90;;;4.80;99.90;;;;;;5068932;28;20016;-76
2022/12/01 08:28:56;;;;;;;1999.90;999.90;;;4.90;99.90;;;;;;5074310;28;20039;-74
2022/12/01 08:31:30;;;;;;;1999.90;999.90;;;5.00;99.90;;;;;;5060218;28;20062;-74
2022/12/01 08:33:56;;;;;;;1999.90;999.90;;;5.00;99.90;;;;;;5082218;28;20028;-74
2022/12/01 08:36:23;;;;;;;1999.90;999.90;;;5.00;99.90;;;;;;5072634;28;20135;-75
2022/12/01 08:38:51;;;;;;;1999.90;999.90;;;5.00;99.90;;;;;;5078994;28;20028;-77
2022/12/01 08:41:18;;;;;;;1999.90;999.90;;;5.10;99.90;;;;;;5083856;28;20036;-74
2022/12/01 08:43:43;;;;;;;1999.90;999.90;;;5.10;99.90;;;;;;5076869;28;20024;-74
2022/12/01 08:46:11;;;;;;;1999.90;999.90;;;5.20;99.90;;;;;;5075845;28;20051;-74
2022/12/01 08:48:37;;;;;;;1999.90;999.90;;;5.30;99.90;;;;;;5068538;28;20094;-78
2022/12/01 08:51:14;;;;;;;1999.90;999.90;;;5.30;99.90;;;;;;5085679;28;20375;-75
2022/12/01 08:53:47;;;;;;;1999.90;999.90;;;5.50;99.90;;;;;;5077008;28;20028;-78
2022/12/01 08:56:20;;;;;;;1999.90;999.90;;;5.50;99.90;;;;;;5075845;28;20120;-75
2022/12/01 08:58:46;;;;;;;1999.90;999.90;;;5.50;99.90;;;;;;5067678;28;20059;-77
2022/12/01 09:01:14;;;;;;;1999.90;999.90;;;5.50;99.90;;;;;;5072587;28;20599;-74
2022/12/01 09:03:41;;;;;;;1999.90;999.90;;;5.60;99.90;;;;;;5068755;28;20558;-74
2022/12/01 09:06:16;;;;;;;1999.90;999.90;;;5.70;99.90;;;;;;5074632;28;20111;-77
2022/12/01 09:08:42;;;;;;;1999.90;999.90;;;5.70;99.90;;;;;;5074515;28;20461;-79
2022/12/01 09:11:16;;;;;;;1999.90;999.90;;;5.80;99.90;;;;;;5086186;28;20403;-75
2022/12/01 09:13:42;;;;;;;1999.90;999.90;;;5.90;99.90;;;;;;5078196;28;20020;-77
2022/12/01 09:16:13;;;;;;;1999.90;999.90;;;6.00;99.90;;;;;;5079674;28;20116;-77
2022/12/01 09:18:39;;;;;;;1999.90;999.90;;;6.10;99.90;;;;;;5084119;28;20039;-77
2022/12/01 09:21:23;;;;;;;1999.90;999.90;;;6.10;99.90;;;;;;5087249;28;20031;-76
2022/12/01 09:23:49;;;;;;;1999.90;999.90;;;6.30;99.90;;;;;;5079105;28;20035;-77
2022/12/01 09:26:18;;;;;;;1999.90;999.90;;;6.30;99.90;;;;;;5078078;28;20020;-75
2022/12/01 09:28:45;;;;;;;1999.90;999.90;;;6.30;99.90;;;;;;5087236;28;20439;-75
2022/12/01 09:31:12;;;;;;;1999.90;999.90;;;6.40;99.90;;;;;;5072527;28;20024;-77
2022/12/01 09:33:38;;;;;;;1999.90;999.90;;;6.50;99.90;;;;;;5076972;28;20069;-77
2022/12/01 09:36:06;;;;;;;1999.90;999.90;;;6.50;99.90;;;;;;5080196;28;20071;-74
2022/12/01 09:38:33;;;;;;;1999.90;999.90;;;6.50;99.90;;;;;;5090883;28;20028;-75
2022/12/01 09:41:04;;;;;;;1999.90;999.90;;;6.60;99.90;;;;;;5073912;28;20064;-74
2022/12/01 09:43:39;;;;;;;1999.90;999.90;;;6.70;99.90;;;;;;5085650;28;20020;-75
2022/12/01 09:46:08;;;;;;;1999.90;999.90;;;6.70;99.90;;;;;;5082442;28;20026;-77
2022/12/01 09:48:41;;;;;;;1999.90;999.90;;;6.70;99.90;;;;;;5098846;28;20028;-74
2022/12/01 09:51:36;;;;;;;;;;;6.80;99.90;;;;;;5086065;28;20036;-75
2022/12/01 09:54:02;;;;;;;1999.90;999.90;;;6.80;99.90;;;;;;5062904;28;20242;-78
2022/12/01 09:56:31;;;;;;;1999.90;999.90;;;6.80;99.90;;;;;;5077059;28;20021;-77
2022/12/01 09:59:06;;;;;;;1999.90;999.90;;;7.00;99.90;;;;;;5071087;28;20029;-74
2022/12/01 10:01:37;;;;;;;1999.90;999.90;;;7.10;99.90;;;;;;5074986;28;20065;-74
2022/12/01 10:04:15;;;;;;;1999.90;999.90;;;7.20;99.90;;;;;;5077974;28;20048;-77
2022/12/01 10:06:47;;;;;;;1999.90;999.90;;;7.30;99.90;;;;;;5069288;28;20513;-77
2022/12/01 10:09:16;;;;;;;1999.90;999.90;;;7.30;99.90;;;;;;5084658;28;20138;-77
2022/12/01 10:11:44;;;;;;;1999.90;999.90;;;7.20;99.90;;;;;;5078064;28;20031;-77
2022/12/01 10:14:16;;;;;;;1999.90;999.90;;;7.20;99.90;;;;;;5080033;28;20048;-77
2022/12/01 10:17:09;;;;;;;1999.90;999.90;;;7.20;99.90;;;;;;5078574;28;20046;-75
2022/12/01 10:19:57;;;;;;;;;;;7.20;99.90;;;;;;5067771;28;20101;-77
2022/12/01 10:22:44;;;;;;;1999.90;999.90;;;7.20;99.90;;;;;;5082067;28;20256;-77
2022/12/01 10:25:19;;;;;;;1999.90;999.90;;;7.20;99.90;;;;;;5075261;28;20020;-77
2022/12/01 10:28:10;;;;;;;1999.90;999.90;;;7.30;99.90;;;;;;5076982;28;20466;-75
2022/12/01 10:30:49;;;;;;;1999.90;999.90;;;7.30;99.90;;;;;;5079472;28;20038;-74
2022/12/01 10:33:21;;;;;;;1999.90;999.90;;;7.30;99.90;;;;;;5077402;28;20028;-74
2022/12/01 10:35:47;;;;;;;1999.90;999.90;;;7.40;99.90;;;;;;5080193;28;20150;-74
2022/12/01 10:38:31;;;;;;;1999.90;999.90;;;7.40;99.90;;;;;;5071043;28;20785;-77
2022/12/01 10:41:00;;;;;;;1999.90;999.90;;;7.30;99.90;;;;;;5069304;28;20040;-77
2022/12/01 10:43:35;;;;;;;1999.90;999.90;;;7.30;99.90;;;;;;5070897;28;20017;-74
2022/12/01 10:46:14;;;;;;;1999.90;999.90;;;7.40;99.90;;;;;;5070456;28;20042;-77
2022/12/01 10:48:52;;;;;;;1999.90;999.90;;;7.50;99.90;;;;;;5075930;28;20035;-77
2022/12/01 10:51:19;;;;;;;1999.90;999.90;;;7.60;99.90;;;;;;5074580;28;20407;-77
2022/12/01 10:53:45;;;;;;;1999.90;999.90;;;7.80;99.90;;;;;;5073691;28;20119;-75
2022/12/01 10:56:20;;;;;;;1999.90;999.90;;;8.00;99.90;;;;;;5077164;28;20158;-77
2022/12/01 10:59:00;;;;;;;1999.90;999.90;;;8.10;99.90;;;;;;5073865;28;20028;-75
2022/12/01 11:01:34;;;;;;;1999.90;999.90;;;8.20;99.90;;;;;;5083547;28;20016;-77
2022/12/01 11:04:20;;;;;;;1999.90;999.90;;;8.20;99.90;;;;;;5075792;28;20403;-77
2022/12/01 11:06:50;;;;;;;1999.90;999.90;;;8.20;99.90;;;;;;5077053;28;20028;-75
2022/12/01 11:09:20;;;;;;;1999.90;999.90;;;8.30;99.90;;;;;;5080639;28;20027;-75
2022/12/01 11:11:53;;;;;;;1999.90;999.90;;;8.30;99.90;;;;;;5062305;28;20560;-74
2022/12/01 11:14:22;;;;;;;1999.90;999.90;;;8.30;99.90;;;;;;5071559;28;20023;-75
2022/12/01 11:16:50;;;;;;;1999.90;999.90;;;8.30;99.90;;;;;;5078834;28;20033;-77
2022/12/01 11:19:33;;;;;;;1999.90;999.90;;;8.50;99.90;;;;;;5081243;28;20024;-74
2022/12/01 11:22:01;;;;;;;1999.90;999.90;;;8.30;99.90;;;;;;5089834;28;20055;-77
2022/12/01 11:24:52;;;;;;;1999.90;999.90;;;8.20;99.90;;;;;;5077206;28;20064;-77
2022/12/01 11:27:24;;;;;;;1999.90;999.90;;;8.30;99.90;;;;;;5080634;28;20036;-77
2022/12/01 11:29:54;;;;;;;1999.90;999.90;;;8.40;99.90;;;;;;5075807;28;20021;-77
2022/12/01 11:32:23;;;;;;;1999.90;999.90;;;8.40;99.90;;;;;;5077467;28;20048;-79
2022/12/01 11:35:00;;;;;;;1999.90;999.90;;;8.40;99.90;;;;;;5073604;28;20029;-76
2022/12/01 11:37:36;;;;;;;1999.90;999.90;;;8.40;99.90;;;;;;5072637;28;20027;-78
2022/12/01 11:40:19;;;;;;;1999.90;999.90;;;8.30;99.90;;;;;;5068604;28;20056;-77
2022/12/01 11:42:53;;;;;;;1999.90;999.90;;;8.20;99.90;;;;;;5076072;28;20020;-78
2022/12/01 11:45:39;;;;;;;1999.90;999.90;;;8.20;99.90;;;;;;5066625;28;20025;-76
2022/12/01 11:48:19;;;;;;;1999.90;999.90;;;8.00;99.90;;;;;;5088502;28;20020;-79
2022/12/01 11:51:02;;;;;;;1999.90;999.90;;;8.00;99.90;;;;;;5080979;28;20107;-79
2022/12/01 11:53:40;;;;;;;1999.90;999.90;;;8.00;99.90;;;;;;5077003;28;20043;-79
2022/12/01 11:56:27;;;;;;;1999.90;999.90;;;7.90;99.90;;;;;;5081801;28;20138;-79
2022/12/01 11:59:11;;;;;;;1999.90;999.90;;;8.20;99.90;;;;;;5074574;28;20023;-79
2022/12/01 12:01:40;;;;;;;1999.90;999.90;;;8.10;99.90;;;;;;5063325;28;20519;-80
2022/12/01 12:04:21;;;;;;;1999.90;999.90;;;8.20;99.90;;;;;;5071815;28;20044;-74
2022/12/01 12:06:58;;;;;;;1999.90;999.90;;;8.30;99.90;;;;;;5075321;28;20549;-76
2022/12/01 12:09:37;;;;;;;1999.90;999.90;;;8.30;99.90;;;;;;5070707;28;20021;-79
2022/12/01 12:12:26;;;;;;;1999.90;999.90;;;8.60;99.90;;;;;;5079915;28;20082;-76
2022/12/01 12:15:09;;;;;;;1999.90;999.90;;;8.50;99.90;;;;;;5071525;28;20039;-76
2022/12/01 12:17:52;;;;;;;1999.90;999.90;;;8.20;99.90;;;;;;5074389;28;20043;-78
2022/12/01 12:20:47;;;;;;;1999.90;999.90;;;8.10;99.90;;;;;;5060507;28;20020;-79
2022/12/01 12:23:40;;;;;;;1999.90;999.90;;;8.00;99.90;;;;;;5078983;28;20104;-79
2022/12/01 12:26:20;;;;;;;1999.90;999.90;;;8.00;99.90;;;;;;5073657;28;20028;-76
2022/12/01 12:28:58;;;;;;;1999.90;999.90;;;7.90;99.90;;;;;;5067227;28;20036;-78